sensor_id;sensor_type;location;lat;lon;timestamp;P1;durP1;ratioP1;P2;durP2;ratioP2
21890;SDS011;11110;52.386;16.940;2023-06-10T00:00:50;7.75;;;6.97;;
21890;SDS011;11110;52.386;16.940;2023-06-10T00:03:41;11.40;;;7.53;;
21890;SDS011;11110;52.386;16.940;2023-06-10T00:06:10;8.55;;;7.68;;
21890;SDS011;11110;52.386;16.940;2023-06-10T00:08:39;9.15;;;7.97;;
21890;SDS011;11110;52.386;16.940;2023-06-10T00:11:08;8.73;;;7.75;;
21890;SDS011;11110;52.386;16.940;2023-06-10T00:13:37;8.55;;;7.65;;
21890;SDS011;11110;52.386;16.940;2023-06-10T00:16:05;11.43;;;8.43;;
21890;SDS011;11110;52.386;16.940;2023-06-10T00:18:34;10.68;;;7.28;;
21890;SDS011;11110;52.386;16.940;2023-06-10T00:21:06;10.57;;;8.45;;
21890;SDS011;11110;52.386;16.940;2023-06-10T00:23:34;9.77;;;7.80;;
21890;SDS011;11110;52.386;16.940;2023-06-10T00:26:05;12.60;;;8.65;;
21890;SDS011;11110;52.386;16.940;2023-06-10T00:28:33;10.88;;;9.05;;
21890;SDS011;11110;52.386;16.940;2023-06-10T00:31:02;11.32;;;9.10;;
21890;SDS011;11110;52.386;16.940;2023-06-10T00:33:32;9.70;;;8.38;;
21890;SDS011;11110;52.386;16.940;2023-06-10T00:36:01;12.18;;;9.25;;
21890;SDS011;11110;52.386;16.940;2023-06-10T00:38:32;10.60;;;9.50;;
21890;SDS011;11110;52.386;16.940;2023-06-10T00:41:01;12.98;;;8.77;;
21890;SDS011;11110;52.386;16.940;2023-06-10T00:43:30;11.48;;;9.68;;
21890;SDS011;11110;52.386;16.940;2023-06-10T00:45:58;10.98;;;9.20;;
21890;SDS011;11110;52.386;16.940;2023-06-10T00:48:29;12.98;;;8.77;;
21890;SDS011;11110;52.386;16.940;2023-06-10T00:50:57;10.68;;;8.55;;
21890;SDS011;11110;52.386;16.940;2023-06-10T00:53:27;9.57;;;8.57;;
21890;SDS011;11110;52.386;16.940;2023-06-10T00:55:59;12.48;;;7.90;;
21890;SDS011;11110;52.386;16.940;2023-06-10T00:58:28;10.43;;;9.05;;
21890;SDS011;11110;52.386;16.940;2023-06-10T01:00:57;11.75;;;8.82;;
21890;SDS011;11110;52.386;16.940;2023-06-10T01:03:27;11.88;;;9.65;;
21890;SDS011;11110;52.386;16.940;2023-06-10T01:05:57;13.98;;;9.13;;
21890;SDS011;11110;52.386;16.940;2023-06-10T01:08:32;11.57;;;8.90;;
21890;SDS011;11110;52.386;16.940;2023-06-10T01:11:12;9.45;;;8.55;;
21890;SDS011;11110;52.386;16.940;2023-06-10T01:13:45;9.50;;;8.40;;
21890;SDS011;11110;52.386;16.940;2023-06-10T01:16:18;11.38;;;8.57;;
21890;SDS011;11110;52.386;16.940;2023-06-10T01:18:48;13.65;;;8.93;;
21890;SDS011;11110;52.386;16.940;2023-06-10T01:21:19;8.98;;;8.02;;
21890;SDS011;11110;52.386;16.940;2023-06-10T01:23:51;12.50;;;9.40;;
21890;SDS011;11110;52.386;16.940;2023-06-10T01:26:24;9.30;;;8.25;;
21890;SDS011;11110;52.386;16.940;2023-06-10T01:28:57;10.57;;;8.98;;
21890;SDS011;11110;52.386;16.940;2023-06-10T01:31:33;9.73;;;8.80;;
21890;SDS011;11110;52.386;16.940;2023-06-10T01:34:07;9.55;;;7.78;;
21890;SDS011;11110;52.386;16.940;2023-06-10T01:36:39;9.40;;;8.15;;
21890;SDS011;11110;52.386;16.940;2023-06-10T01:39:09;11.20;;;8.30;;
21890;SDS011;11110;52.386;16.940;2023-06-10T01:41:40;13.00;;;8.65;;
21890;SDS011;11110;52.386;16.940;2023-06-10T01:44:10;13.48;;;8.52;;
21890;SDS011;11110;52.386;16.940;2023-06-10T01:46:39;11.82;;;7.90;;
21890;SDS011;11110;52.386;16.940;2023-06-10T01:49:08;10.60;;;8.00;;
21890;SDS011;11110;52.386;16.940;2023-06-10T01:51:36;15.68;;;8.60;;
21890;SDS011;11110;52.386;16.940;2023-06-10T01:54:08;13.35;;;8.57;;
21890;SDS011;11110;52.386;16.940;2023-06-10T01:56:37;12.07;;;8.52;;
21890;SDS011;11110;52.386;16.940;2023-06-10T01:59:05;9.68;;;7.90;;
21890;SDS011;11110;52.386;16.940;2023-06-10T02:01:34;10.35;;;7.95;;
21890;SDS011;11110;52.386;16.940;2023-06-10T02:04:03;10.55;;;8.27;;
21890;SDS011;11110;52.386;16.940;2023-06-10T02:06:32;9.30;;;8.00;;
21890;SDS011;11110;52.386;16.940;2023-06-10T02:09:03;9.15;;;7.60;;
21890;SDS011;11110;52.386;16.940;2023-06-10T02:11:32;10.30;;;8.00;;
21890;SDS011;11110;52.386;16.940;2023-06-10T02:14:01;9.05;;;7.22;;
21890;SDS011;11110;52.386;16.940;2023-06-10T02:16:30;11.25;;;7.28;;
21890;SDS011;11110;52.386;16.940;2023-06-10T02:18:58;10.38;;;7.30;;
21890;SDS011;11110;52.386;16.940;2023-06-10T02:21:28;8.88;;;7.22;;
21890;SDS011;11110;52.386;16.940;2023-06-10T02:23:57;9.30;;;7.25;;
21890;SDS011;11110;52.386;16.940;2023-06-10T02:26:26;11.50;;;6.82;;
21890;SDS011;11110;52.386;16.940;2023-06-10T02:29:00;8.63;;;6.72;;
21890;SDS011;11110;52.386;16.940;2023-06-10T02:31:28;8.48;;;6.78;;
21890;SDS011;11110;52.386;16.940;2023-06-10T02:33:58;9.23;;;7.00;;
21890;SDS011;11110;52.386;16.940;2023-06-10T02:36:26;11.52;;;7.07;;
21890;SDS011;11110;52.386;16.940;2023-06-10T02:38:55;8.63;;;6.95;;
21890;SDS011;11110;52.386;16.940;2023-06-10T02:41:24;10.15;;;7.47;;
21890;SDS011;11110;52.386;16.940;2023-06-10T02:43:54;11.82;;;7.20;;
21890;SDS011;11110;52.386;16.940;2023-06-10T02:46:24;10.23;;;6.65;;
21890;SDS011;11110;52.386;16.940;2023-06-10T02:48:56;7.90;;;7.07;;
21890;SDS011;11110;52.386;16.940;2023-06-10T02:51:24;11.15;;;6.90;;
21890;SDS011;11110;52.386;16.940;2023-06-10T02:53:59;10.48;;;7.43;;
21890;SDS011;11110;52.386;16.940;2023-06-10T02:56:27;9.82;;;8.13;;
21890;SDS011;11110;52.386;16.940;2023-06-10T02:59:00;9.35;;;6.90;;
21890;SDS011;11110;52.386;16.940;2023-06-10T03:01:31;8.60;;;7.60;;
21890;SDS011;11110;52.386;16.940;2023-06-10T03:04:06;10.30;;;6.78;;
21890;SDS011;11110;52.386;16.940;2023-06-10T03:06:35;8.35;;;6.68;;
21890;SDS011;11110;52.386;16.940;2023-06-10T03:09:14;10.35;;;7.20;;
21890;SDS011;11110;52.386;16.940;2023-06-10T03:11:46;7.75;;;6.80;;
21890;SDS011;11110;52.386;16.940;2023-06-10T03:14:15;8.80;;;7.25;;
21890;SDS011;11110;52.386;16.940;2023-06-10T03:16:45;8.20;;;7.18;;
21890;SDS011;11110;52.386;16.940;2023-06-10T03:19:14;7.38;;;6.68;;
21890;SDS011;11110;52.386;16.940;2023-06-10T03:21:48;8.25;;;6.68;;
21890;SDS011;11110;52.386;16.940;2023-06-10T03:24:18;11.85;;;7.68;;
21890;SDS011;11110;52.386;16.940;2023-06-10T03:26:46;8.50;;;6.55;;
21890;SDS011;11110;52.386;16.940;2023-06-10T03:29:16;9.70;;;7.13;;
21890;SDS011;11110;52.386;16.940;2023-06-10T03:31:46;10.30;;;7.10;;
21890;SDS011;11110;52.386;16.940;2023-06-10T03:34:16;10.68;;;7.03;;
21890;SDS011;11110;52.386;16.940;2023-06-10T03:36:44;9.65;;;7.03;;
21890;SDS011;11110;52.386;16.940;2023-06-10T03:39:13;8.82;;;6.75;;
21890;SDS011;11110;52.386;16.940;2023-06-10T03:41:41;7.97;;;6.55;;
21890;SDS011;11110;52.386;16.940;2023-06-10T03:44:10;8.70;;;6.82;;
21890;SDS011;11110;52.386;16.940;2023-06-10T03:46:39;11.63;;;6.80;;
21890;SDS011;11110;52.386;16.940;2023-06-10T03:49:09;8.82;;;6.60;;
21890;SDS011;11110;52.386;16.940;2023-06-10T03:51:38;7.65;;;6.30;;
21890;SDS011;11110;52.386;16.940;2023-06-10T03:54:06;8.30;;;6.80;;
21890;SDS011;11110;52.386;16.940;2023-06-10T03:56:35;8.55;;;6.57;;
21890;SDS011;11110;52.386;16.940;2023-06-10T03:59:04;6.93;;;6.22;;
21890;SDS011;11110;52.386;16.940;2023-06-10T04:01:33;8.68;;;6.45;;
21890;SDS011;11110;52.386;16.940;2023-06-10T04:04:04;8.48;;;6.38;;
21890;SDS011;11110;52.386;16.940;2023-06-10T04:06:35;9.15;;;6.60;;
21890;SDS011;11110;52.386;16.940;2023-06-10T04:09:04;10.35;;;6.95;;
21890;SDS011;11110;52.386;16.940;2023-06-10T04:11:32;9.60;;;6.50;;
21890;SDS011;11110;52.386;16.940;2023-06-10T04:14:01;11.60;;;6.97;;
21890;SDS011;11110;52.386;16.940;2023-06-10T04:16:30;9.57;;;6.80;;
21890;SDS011;11110;52.386;16.940;2023-06-10T04:19:00;8.10;;;6.03;;
21890;SDS011;11110;52.386;16.940;2023-06-10T04:21:29;10.85;;;6.35;;
21890;SDS011;11110;52.386;16.940;2023-06-10T04:23:59;9.85;;;7.10;;
21890;SDS011;11110;52.386;16.940;2023-06-10T04:26:28;8.55;;;6.03;;
21890;SDS011;11110;52.386;16.940;2023-06-10T04:28:57;20.20;;;6.72;;
21890;SDS011;11110;52.386;16.940;2023-06-10T04:31:25;9.55;;;6.45;;
21890;SDS011;11110;52.386;16.940;2023-06-10T04:33:55;9.23;;;6.53;;
21890;SDS011;11110;52.386;16.940;2023-06-10T04:36:24;7.70;;;6.18;;
21890;SDS011;11110;52.386;16.940;2023-06-10T04:38:53;10.70;;;6.45;;
21890;SDS011;11110;52.386;16.940;2023-06-10T04:41:23;8.45;;;6.60;;
21890;SDS011;11110;52.386;16.940;2023-06-10T04:43:53;13.45;;;6.60;;
21890;SDS011;11110;52.386;16.940;2023-06-10T04:46:21;12.13;;;6.97;;
21890;SDS011;11110;52.386;16.940;2023-06-10T04:48:50;13.63;;;6.35;;
21890;SDS011;11110;52.386;16.940;2023-06-10T04:51:21;11.60;;;6.35;;
21890;SDS011;11110;52.386;16.940;2023-06-10T04:53:50;10.65;;;6.65;;
21890;SDS011;11110;52.386;16.940;2023-06-10T04:56:19;10.00;;;6.20;;
21890;SDS011;11110;52.386;16.940;2023-06-10T04:58:50;7.50;;;5.78;;
21890;SDS011;11110;52.386;16.940;2023-06-10T05:01:18;9.48;;;6.38;;
21890;SDS011;11110;52.386;16.940;2023-06-10T05:03:47;9.05;;;5.97;;
21890;SDS011;11110;52.386;16.940;2023-06-10T05:06:16;12.13;;;6.38;;
21890;SDS011;11110;52.386;16.940;2023-06-10T05:08:45;10.43;;;6.60;;
21890;SDS011;11110;52.386;16.940;2023-06-10T05:11:13;13.93;;;5.85;;
21890;SDS011;11110;52.386;16.940;2023-06-10T05:13:42;13.68;;;6.82;;
21890;SDS011;11110;52.386;16.940;2023-06-10T05:16:12;8.60;;;6.40;;
21890;SDS011;11110;52.386;16.940;2023-06-10T05:18:42;9.43;;;6.70;;
21890;SDS011;11110;52.386;16.940;2023-06-10T05:21:10;8.52;;;6.50;;
21890;SDS011;11110;52.386;16.940;2023-06-10T05:23:39;8.52;;;5.90;;
21890;SDS011;11110;52.386;16.940;2023-06-10T05:26:07;10.57;;;6.38;;
21890;SDS011;11110;52.386;16.940;2023-06-10T05:28:36;9.52;;;6.25;;
21890;SDS011;11110;52.386;16.940;2023-06-10T05:31:04;6.95;;;5.95;;
21890;SDS011;11110;52.386;16.940;2023-06-10T05:33:34;11.00;;;5.63;;
21890;SDS011;11110;52.386;16.940;2023-06-10T05:36:03;8.35;;;5.43;;
21890;SDS011;11110;52.386;16.940;2023-06-10T05:38:32;8.32;;;5.68;;
21890;SDS011;11110;52.386;16.940;2023-06-10T05:41:00;9.50;;;5.32;;
21890;SDS011;11110;52.386;16.940;2023-06-10T05:43:30;8.43;;;5.70;;
21890;SDS011;11110;52.386;16.940;2023-06-10T05:45:58;10.90;;;6.25;;
21890;SDS011;11110;52.386;16.940;2023-06-10T05:48:27;7.47;;;5.82;;
21890;SDS011;11110;52.386;16.940;2023-06-10T05:50:57;8.57;;;6.13;;
21890;SDS011;11110;52.386;16.940;2023-06-10T05:53:26;8.88;;;5.88;;
21890;SDS011;11110;52.386;16.940;2023-06-10T05:55:55;10.23;;;5.80;;
21890;SDS011;11110;52.386;16.940;2023-06-10T05:58:25;7.38;;;5.75;;
21890;SDS011;11110;52.386;16.940;2023-06-10T06:00:53;14.23;;;5.90;;
21890;SDS011;11110;52.386;16.940;2023-06-10T06:03:22;7.07;;;5.20;;
21890;SDS011;11110;52.386;16.940;2023-06-10T06:05:51;7.18;;;5.22;;
21890;SDS011;11110;52.386;16.940;2023-06-10T06:08:21;8.20;;;5.35;;
21890;SDS011;11110;52.386;16.940;2023-06-10T06:10:49;8.88;;;5.60;;
21890;SDS011;11110;52.386;16.940;2023-06-10T06:13:18;12.68;;;6.93;;
21890;SDS011;11110;52.386;16.940;2023-06-10T06:15:47;8.93;;;5.53;;
21890;SDS011;11110;52.386;16.940;2023-06-10T06:18:15;10.45;;;5.85;;
21890;SDS011;11110;52.386;16.940;2023-06-10T06:20:45;11.23;;;5.30;;
21890;SDS011;11110;52.386;16.940;2023-06-10T06:23:14;8.30;;;5.72;;
21890;SDS011;11110;52.386;16.940;2023-06-10T06:25:44;11.68;;;5.88;;
21890;SDS011;11110;52.386;16.940;2023-06-10T06:28:12;9.13;;;5.03;;
21890;SDS011;11110;52.386;16.940;2023-06-10T06:30:41;8.77;;;5.07;;
21890;SDS011;11110;52.386;16.940;2023-06-10T06:33:10;7.13;;;4.80;;
21890;SDS011;11110;52.386;16.940;2023-06-10T06:35:38;11.30;;;5.53;;
21890;SDS011;11110;52.386;16.940;2023-06-10T06:38:07;8.35;;;5.15;;
21890;SDS011;11110;52.386;16.940;2023-06-10T06:40:36;12.32;;;5.28;;
21890;SDS011;11110;52.386;16.940;2023-06-10T06:43:06;9.43;;;5.35;;
21890;SDS011;11110;52.386;16.940;2023-06-10T06:45:56;6.75;;;5.40;;
21890;SDS011;11110;52.386;16.940;2023-06-10T06:48:25;7.30;;;5.13;;
21890;SDS011;11110;52.386;16.940;2023-06-10T06:50:54;8.05;;;4.80;;
21890;SDS011;11110;52.386;16.940;2023-06-10T06:53:24;9.15;;;4.70;;
21890;SDS011;11110;52.386;16.940;2023-06-10T06:55:57;7.45;;;5.60;;
21890;SDS011;11110;52.386;16.940;2023-06-10T06:58:27;7.97;;;5.25;;
21890;SDS011;11110;52.386;16.940;2023-06-10T07:00:55;8.65;;;5.47;;
21890;SDS011;11110;52.386;16.940;2023-06-10T07:03:25;7.82;;;4.78;;
21890;SDS011;11110;52.386;16.940;2023-06-10T07:05:53;11.05;;;5.60;;
21890;SDS011;11110;52.386;16.940;2023-06-10T07:08:22;8.52;;;5.82;;
21890;SDS011;11110;52.386;16.940;2023-06-10T07:10:50;10.25;;;6.10;;
21890;SDS011;11110;52.386;16.940;2023-06-10T07:13:19;11.60;;;6.35;;
21890;SDS011;11110;52.386;16.940;2023-06-10T07:15:49;12.85;;;5.97;;
21890;SDS011;11110;52.386;16.940;2023-06-10T07:18:17;8.75;;;5.57;;
21890;SDS011;11110;52.386;16.940;2023-06-10T07:20:46;11.18;;;5.47;;
21890;SDS011;11110;52.386;16.940;2023-06-10T07:23:15;12.85;;;5.65;;
21890;SDS011;11110;52.386;16.940;2023-06-10T07:25:43;6.85;;;5.35;;
21890;SDS011;11110;52.386;16.940;2023-06-10T07:28:12;8.52;;;5.43;;
21890;SDS011;11110;52.386;16.940;2023-06-10T07:30:41;8.93;;;5.95;;
21890;SDS011;11110;52.386;16.940;2023-06-10T07:33:11;11.25;;;5.63;;
21890;SDS011;11110;52.386;16.940;2023-06-10T07:35:39;8.30;;;5.35;;
21890;SDS011;11110;52.386;16.940;2023-06-10T07:38:10;8.38;;;5.03;;
21890;SDS011;11110;52.386;16.940;2023-06-10T07:40:38;8.45;;;5.43;;
21890;SDS011;11110;52.386;16.940;2023-06-10T07:43:06;7.72;;;5.30;;
21890;SDS011;11110;52.386;16.940;2023-06-10T07:45:35;8.90;;;5.03;;
21890;SDS011;11110;52.386;16.940;2023-06-10T07:48:03;7.15;;;5.90;;
21890;SDS011;11110;52.386;16.940;2023-06-10T07:50:33;9.07;;;5.47;;
21890;SDS011;11110;52.386;16.940;2023-06-10T07:53:02;8.98;;;4.45;;
21890;SDS011;11110;52.386;16.940;2023-06-10T07:55:31;8.57;;;5.15;;
21890;SDS011;11110;52.386;16.940;2023-06-10T07:58:00;8.05;;;5.40;;
21890;SDS011;11110;52.386;16.940;2023-06-10T08:00:28;7.57;;;5.00;;
21890;SDS011;11110;52.386;16.940;2023-06-10T08:02:56;7.60;;;5.10;;
21890;SDS011;11110;52.386;16.940;2023-06-10T08:05:25;7.55;;;5.43;;
21890;SDS011;11110;52.386;16.940;2023-06-10T08:07:55;7.30;;;5.20;;
21890;SDS011;11110;52.386;16.940;2023-06-10T08:10:26;13.55;;;5.05;;
21890;SDS011;11110;52.386;16.940;2023-06-10T08:12:55;9.13;;;4.97;;
21890;SDS011;11110;52.386;16.940;2023-06-10T08:15:24;7.70;;;5.18;;
21890;SDS011;11110;52.386;16.940;2023-06-10T08:17:52;7.00;;;4.70;;
21890;SDS011;11110;52.386;16.940;2023-06-10T08:20:21;6.72;;;4.65;;
21890;SDS011;11110;52.386;16.940;2023-06-10T08:22:50;7.20;;;4.53;;
21890;SDS011;11110;52.386;16.940;2023-06-10T08:25:20;11.82;;;5.30;;
21890;SDS011;11110;52.386;16.940;2023-06-10T08:27:49;9.52;;;4.72;;
21890;SDS011;11110;52.386;16.940;2023-06-10T08:30:18;12.48;;;5.60;;
21890;SDS011;11110;52.386;16.940;2023-06-10T08:32:47;8.55;;;4.53;;
21890;SDS011;11110;52.386;16.940;2023-06-10T08:35:16;8.10;;;4.90;;
21890;SDS011;11110;52.386;16.940;2023-06-10T08:37:44;8.85;;;4.53;;
21890;SDS011;11110;52.386;16.940;2023-06-10T08:40:13;6.80;;;4.75;;
21890;SDS011;11110;52.386;16.940;2023-06-10T08:42:45;10.57;;;5.78;;
21890;SDS011;11110;52.386;16.940;2023-06-10T08:45:17;9.45;;;5.07;;
21890;SDS011;11110;52.386;16.940;2023-06-10T08:47:49;7.47;;;5.30;;
21890;SDS011;11110;52.386;16.940;2023-06-10T08:50:20;8.52;;;4.90;;
21890;SDS011;11110;52.386;16.940;2023-06-10T08:52:54;9.70;;;4.70;;
21890;SDS011;11110;52.386;16.940;2023-06-10T08:55:27;13.13;;;6.45;;
21890;SDS011;11110;52.386;16.940;2023-06-10T08:58:00;6.65;;;4.35;;
21890;SDS011;11110;52.386;16.940;2023-06-10T09:00:31;7.43;;;4.70;;
21890;SDS011;11110;52.386;16.940;2023-06-10T09:03:02;7.13;;;4.43;;
21890;SDS011;11110;52.386;16.940;2023-06-10T09:05:34;5.07;;;4.28;;
21890;SDS011;11110;52.386;16.940;2023-06-10T09:08:04;7.93;;;4.57;;
21890;SDS011;11110;52.386;16.940;2023-06-10T09:10:34;5.35;;;4.43;;
21890;SDS011;11110;52.386;16.940;2023-06-10T09:13:04;5.75;;;4.18;;
21890;SDS011;11110;52.386;16.940;2023-06-10T09:15:33;7.15;;;4.13;;
21890;SDS011;11110;52.386;16.940;2023-06-10T09:18:06;8.30;;;4.30;;
21890;SDS011;11110;52.386;16.940;2023-06-10T09:20:34;5.80;;;4.35;;
21890;SDS011;11110;52.386;16.940;2023-06-10T09:23:04;5.50;;;4.20;;
21890;SDS011;11110;52.386;16.940;2023-06-10T09:25:36;7.68;;;4.53;;
21890;SDS011;11110;52.386;16.940;2023-06-10T09:28:12;7.43;;;4.05;;
21890;SDS011;11110;52.386;16.940;2023-06-10T09:30:41;6.78;;;4.03;;
21890;SDS011;11110;52.386;16.940;2023-06-10T09:33:11;6.18;;;4.05;;
21890;SDS011;11110;52.386;16.940;2023-06-10T09:35:45;6.40;;;4.35;;
21890;SDS011;11110;52.386;16.940;2023-06-10T09:38:21;9.02;;;4.40;;
21890;SDS011;11110;52.386;16.940;2023-06-10T09:40:54;7.13;;;4.35;;
21890;SDS011;11110;52.386;16.940;2023-06-10T09:43:39;5.70;;;3.92;;
21890;SDS011;11110;52.386;16.940;2023-06-10T09:46:16;7.22;;;4.40;;
21890;SDS011;11110;52.386;16.940;2023-06-10T09:48:52;4.88;;;3.92;;
21890;SDS011;11110;52.386;16.940;2023-06-10T09:51:26;5.93;;;4.15;;
21890;SDS011;11110;52.386;16.940;2023-06-10T09:53:55;6.85;;;4.18;;
21890;SDS011;11110;52.386;16.940;2023-06-10T09:56:32;6.53;;;3.70;;
21890;SDS011;11110;52.386;16.940;2023-06-10T09:59:03;5.80;;;4.18;;
21890;SDS011;11110;52.386;16.940;2023-06-10T10:01:32;8.35;;;4.45;;
21890;SDS011;11110;52.386;16.940;2023-06-10T10:04:01;7.57;;;3.85;;
21890;SDS011;11110;52.386;16.940;2023-06-10T10:06:31;6.22;;;3.88;;
21890;SDS011;11110;52.386;16.940;2023-06-10T10:09:02;7.82;;;4.45;;
21890;SDS011;11110;52.386;16.940;2023-06-10T10:11:31;7.82;;;3.95;;
21890;SDS011;11110;52.386;16.940;2023-06-10T10:14:04;7.55;;;4.10;;
21890;SDS011;11110;52.386;16.940;2023-06-10T10:16:36;4.97;;;4.18;;
21890;SDS011;11110;52.386;16.940;2023-06-10T10:19:08;7.32;;;5.13;;
21890;SDS011;11110;52.386;16.940;2023-06-10T10:21:44;10.93;;;5.10;;
21890;SDS011;11110;52.386;16.940;2023-06-10T10:24:19;5.00;;;4.05;;
21890;SDS011;11110;52.386;16.940;2023-06-10T10:26:51;5.50;;;4.45;;
21890;SDS011;11110;52.386;16.940;2023-06-10T10:29:27;6.22;;;3.85;;
21890;SDS011;11110;52.386;16.940;2023-06-10T10:31:59;5.45;;;4.18;;
21890;SDS011;11110;52.386;16.940;2023-06-10T10:34:30;7.18;;;4.00;;
21890;SDS011;11110;52.386;16.940;2023-06-10T10:37:03;6.00;;;3.70;;
21890;SDS011;11110;52.386;16.940;2023-06-10T10:39:32;5.78;;;3.80;;
21890;SDS011;11110;52.386;16.940;2023-06-10T10:42:02;7.43;;;3.85;;
21890;SDS011;11110;52.386;16.940;2023-06-10T10:44:33;5.32;;;4.20;;
21890;SDS011;11110;52.386;16.940;2023-06-10T10:47:02;8.82;;;4.50;;
21890;SDS011;11110;52.386;16.940;2023-06-10T10:49:31;6.15;;;4.97;;
21890;SDS011;11110;52.386;16.940;2023-06-10T10:52:02;6.13;;;4.28;;
21890;SDS011;11110;52.386;16.940;2023-06-10T10:54:33;6.50;;;4.82;;
21890;SDS011;11110;52.386;16.940;2023-06-10T10:57:16;5.97;;;3.97;;
21890;SDS011;11110;52.386;16.940;2023-06-10T10:59:54;6.75;;;4.03;;
21890;SDS011;11110;52.386;16.940;2023-06-10T11:02:40;4.80;;;3.50;;
21890;SDS011;11110;52.386;16.940;2023-06-10T11:05:13;8.18;;;4.30;;
21890;SDS011;11110;52.386;16.940;2023-06-10T11:07:51;6.63;;;4.82;;
21890;SDS011;11110;52.386;16.940;2023-06-10T11:10:28;6.75;;;4.20;;
21890;SDS011;11110;52.386;16.940;2023-06-10T11:12:58;6.20;;;3.85;;
21890;SDS011;11110;52.386;16.940;2023-06-10T11:15:28;5.40;;;3.90;;
21890;SDS011;11110;52.386;16.940;2023-06-10T11:20:52;5.57;;;4.47;;
21890;SDS011;11110;52.386;16.940;2023-06-10T11:23:38;4.90;;;4.15;;
21890;SDS011;11110;52.386;16.940;2023-06-10T11:26:15;7.20;;;4.28;;
21890;SDS011;11110;52.386;16.940;2023-06-10T11:29:04;9.05;;;4.20;;
21890;SDS011;11110;52.386;16.940;2023-06-10T11:31:40;6.50;;;3.90;;
21890;SDS011;11110;52.386;16.940;2023-06-10T11:34:10;6.40;;;4.20;;
21890;SDS011;11110;52.386;16.940;2023-06-10T11:36:40;8.32;;;4.50;;
21890;SDS011;11110;52.386;16.940;2023-06-10T11:39:12;7.35;;;4.63;;
21890;SDS011;11110;52.386;16.940;2023-06-10T11:41:41;7.82;;;5.35;;
21890;SDS011;11110;52.386;16.940;2023-06-10T11:44:10;7.15;;;4.10;;
21890;SDS011;11110;52.386;16.940;2023-06-10T11:46:47;6.82;;;4.47;;
21890;SDS011;11110;52.386;16.940;2023-06-10T11:49:16;7.57;;;4.68;;
21890;SDS011;11110;52.386;16.940;2023-06-10T11:51:45;5.20;;;4.28;;
21890;SDS011;11110;52.386;16.940;2023-06-10T11:54:18;6.20;;;4.15;;
21890;SDS011;11110;52.386;16.940;2023-06-10T11:56:47;14.07;;;4.40;;
21890;SDS011;11110;52.386;16.940;2023-06-10T11:59:15;6.80;;;4.10;;
21890;SDS011;11110;52.386;16.940;2023-06-10T12:01:46;8.48;;;4.97;;
21890;SDS011;11110;52.386;16.940;2023-06-10T12:04:15;8.15;;;4.35;;
21890;SDS011;11110;52.386;16.940;2023-06-10T12:06:46;8.15;;;4.40;;
21890;SDS011;11110;52.386;16.940;2023-06-10T12:09:17;7.13;;;4.60;;
21890;SDS011;11110;52.386;16.940;2023-06-10T12:11:53;7.60;;;4.28;;
21890;SDS011;11110;52.386;16.940;2023-06-10T12:17:23;6.60;;;4.43;;
21890;SDS011;11110;52.386;16.940;2023-06-10T12:20:04;5.35;;;3.90;;
21890;SDS011;11110;52.386;16.940;2023-06-10T12:22:35;4.97;;;4.40;;
21890;SDS011;11110;52.386;16.940;2023-06-10T12:25:05;11.70;;;4.65;;
21890;SDS011;11110;52.386;16.940;2023-06-10T12:27:36;8.13;;;4.10;;
21890;SDS011;11110;52.386;16.940;2023-06-10T12:30:05;6.00;;;4.57;;
21890;SDS011;11110;52.386;16.940;2023-06-10T12:32:36;7.43;;;4.25;;
21890;SDS011;11110;52.386;16.940;2023-06-10T12:35:08;4.15;;;3.67;;
21890;SDS011;11110;52.386;16.940;2023-06-10T12:37:38;4.63;;;3.47;;
21890;SDS011;11110;52.386;16.940;2023-06-10T12:40:10;5.40;;;3.72;;
21890;SDS011;11110;52.386;16.940;2023-06-10T12:42:39;6.93;;;3.90;;
21890;SDS011;11110;52.386;16.940;2023-06-10T12:45:09;9.30;;;4.47;;
21890;SDS011;11110;52.386;16.940;2023-06-10T12:47:41;7.68;;;3.97;;
21890;SDS011;11110;52.386;16.940;2023-06-10T12:50:11;6.25;;;3.90;;
21890;SDS011;11110;52.386;16.940;2023-06-10T12:52:40;10.10;;;4.45;;
21890;SDS011;11110;52.386;16.940;2023-06-10T12:55:09;7.88;;;4.28;;
21890;SDS011;11110;52.386;16.940;2023-06-10T12:57:47;4.47;;;3.83;;
21890;SDS011;11110;52.386;16.940;2023-06-10T13:00:16;5.28;;;4.25;;
21890;SDS011;11110;52.386;16.940;2023-06-10T13:02:48;7.63;;;3.90;;
21890;SDS011;11110;52.386;16.940;2023-06-10T13:05:17;5.30;;;4.05;;
21890;SDS011;11110;52.386;16.940;2023-06-10T13:07:47;5.75;;;4.25;;
21890;SDS011;11110;52.386;16.940;2023-06-10T13:10:17;4.90;;;3.67;;
21890;SDS011;11110;52.386;16.940;2023-06-10T13:12:51;6.28;;;3.45;;
21890;SDS011;11110;52.386;16.940;2023-06-10T13:15:21;9.52;;;3.65;;
21890;SDS011;11110;52.386;16.940;2023-06-10T13:17:51;4.22;;;3.47;;
21890;SDS011;11110;52.386;16.940;2023-06-10T13:20:20;5.78;;;4.18;;
21890;SDS011;11110;52.386;16.940;2023-06-10T13:22:48;7.75;;;3.30;;
21890;SDS011;11110;52.386;16.940;2023-06-10T13:25:17;6.30;;;4.10;;
21890;SDS011;11110;52.386;16.940;2023-06-10T13:27:46;6.07;;;3.55;;
21890;SDS011;11110;52.386;16.940;2023-06-10T13:30:14;4.75;;;3.53;;
21890;SDS011;11110;52.386;16.940;2023-06-10T13:32:43;5.90;;;3.83;;
21890;SDS011;11110;52.386;16.940;2023-06-10T13:35:12;7.82;;;3.45;;
21890;SDS011;11110;52.386;16.940;2023-06-10T13:37:41;10.48;;;4.30;;
21890;SDS011;11110;52.386;16.940;2023-06-10T13:40:10;8.13;;;4.85;;
21890;SDS011;11110;52.386;16.940;2023-06-10T13:42:39;5.88;;;3.20;;
21890;SDS011;11110;52.386;16.940;2023-06-10T13:45:08;6.32;;;3.83;;
21890;SDS011;11110;52.386;16.940;2023-06-10T13:47:37;8.13;;;3.70;;
21890;SDS011;11110;52.386;16.940;2023-06-10T13:50:06;7.60;;;4.20;;
21890;SDS011;11110;52.386;16.940;2023-06-10T13:52:37;8.55;;;3.92;;
21890;SDS011;11110;52.386;16.940;2023-06-10T13:55:06;5.63;;;3.63;;
21890;SDS011;11110;52.386;16.940;2023-06-10T13:57:36;8.70;;;3.47;;
21890;SDS011;11110;52.386;16.940;2023-06-10T14:00:05;6.95;;;3.45;;
21890;SDS011;11110;52.386;16.940;2023-06-10T14:02:35;4.35;;;3.90;;
21890;SDS011;11110;52.386;16.940;2023-06-10T14:05:04;5.75;;;3.58;;
21890;SDS011;11110;52.386;16.940;2023-06-10T14:07:35;5.03;;;3.75;;
21890;SDS011;11110;52.386;16.940;2023-06-10T14:10:07;4.70;;;3.55;;
21890;SDS011;11110;52.386;16.940;2023-06-10T14:12:37;5.68;;;3.75;;
21890;SDS011;11110;52.386;16.940;2023-06-10T14:15:07;7.70;;;3.67;;
21890;SDS011;11110;52.386;16.940;2023-06-10T14:17:36;6.57;;;3.78;;
21890;SDS011;11110;52.386;16.940;2023-06-10T14:20:05;7.03;;;3.85;;
21890;SDS011;11110;52.386;16.940;2023-06-10T14:22:34;3.80;;;3.20;;
21890;SDS011;11110;52.386;16.940;2023-06-10T14:25:04;7.10;;;3.97;;
21890;SDS011;11110;52.386;16.940;2023-06-10T14:27:34;3.30;;;3.00;;
21890;SDS011;11110;52.386;16.940;2023-06-10T14:30:03;6.05;;;3.05;;
21890;SDS011;11110;52.386;16.940;2023-06-10T14:32:32;5.32;;;2.95;;
21890;SDS011;11110;52.386;16.940;2023-06-10T14:35:01;4.55;;;3.40;;
21890;SDS011;11110;52.386;16.940;2023-06-10T14:37:30;5.30;;;3.28;;
21890;SDS011;11110;52.386;16.940;2023-06-10T14:39:58;5.68;;;3.20;;
21890;SDS011;11110;52.386;16.940;2023-06-10T14:42:28;6.60;;;2.75;;
21890;SDS011;11110;52.386;16.940;2023-06-10T14:44:58;4.53;;;3.60;;
21890;SDS011;11110;52.386;16.940;2023-06-10T14:47:27;4.25;;;3.33;;
21890;SDS011;11110;52.386;16.940;2023-06-10T14:49:56;2.92;;;2.60;;
21890;SDS011;11110;52.386;16.940;2023-06-10T14:52:25;4.55;;;3.28;;
21890;SDS011;11110;52.386;16.940;2023-06-10T14:54:53;5.10;;;3.22;;